Time;durP1;ratioP1;P1;durP2;ratioP2;P2;SDS_P1;SDS_P2;PMS_P1;PMS_P2;Temp;Humidity;BMP_temperature;BMP_pressure;BME280_temperature;BME280_humidity;BME280_pressure;Samples;Min_cycle;Max_cycle;Signal;HPM_P1;HPM_P2
2023/07/03 00:00:12;;;;;;;12.82;4.47;;;16.30;99.90;;;;;;6244614;22;20114;-84
2023/07/03 00:02:41;;;;;;;14.98;4.63;;;16.30;99.90;;;;;;6271201;22;20008;-84
2023/07/03 00:05:09;;;;;;;15.77;5.63;;;16.30;99.90;;;;;;6269221;22;20378;-84
2023/07/03 00:07:36;;;;;;;14.75;4.93;;;16.30;99.90;;;;;;6270620;22;20462;-84
2023/07/03 00:10:04;;;;;;;11.07;4.43;;;16.30;99.90;;;;;;6270873;22;20081;-84
2023/07/03 00:12:30;;;;;;;14.27;4.70;;;16.30;99.90;;;;;;6269003;22;20458;-84
2023/07/03 00:14:56;;;;;;;14.73;4.90;;;16.30;99.90;;;;;;6241838;22;21982;-83
2023/07/03 00:17:22;;;;;;;9.73;3.97;;;16.30;99.90;;;;;;6268893;22;20011;-84
2023/07/03 00:19:48;;;;;;;14.43;4.22;;;16.30;99.90;;;;;;6269724;22;20069;-84
2023/07/03 00:22:14;;;;;;;15.70;4.95;;;16.30;99.90;;;;;;6268809;22;20087;-84
2023/07/03 00:24:39;;;;;;;11.98;4.45;;;16.20;99.90;;;;;;6269730;22;20470;-84
2023/07/03 00:27:06;;;;;;;13.75;4.78;;;16.20;99.90;;;;;;6268530;22;20007;-84
2023/07/03 00:29:33;;;;;;;14.45;4.28;;;16.20;99.90;;;;;;6271454;22;20019;-84
2023/07/03 00:32:00;;;;;;;18.08;4.97;;;16.20;99.90;;;;;;6268485;22;20008;-83
2023/07/03 00:34:27;;;;;;;16.65;4.53;;;16.10;99.90;;;;;;6271729;22;20015;-84
2023/07/03 00:36:54;;;;;;;14.80;4.15;;;16.20;99.90;;;;;;6270596;22;20337;-81
2023/07/03 00:39:20;;;;;;;14.00;4.22;;;16.10;99.90;;;;;;6271304;22;20012;-84
2023/07/03 00:41:46;;;;;;;12.85;4.18;;;16.10;99.90;;;;;;6268484;22;20114;-84
2023/07/03 00:44:15;;;;;;;13.77;4.13;;;16.10;99.90;;;;;;6268648;22;20442;-84
2023/07/03 00:46:43;;;;;;;13.15;3.90;;;16.10;99.90;;;;;;6269938;22;20023;-84
2023/07/03 00:49:10;;;;;;;14.45;4.45;;;16.10;99.90;;;;;;6269480;22;20065;-84
2023/07/03 00:51:39;;;;;;;14.25;4.07;;;16.10;99.90;;;;;;6269077;22;20081;-84
2023/07/03 00:54:05;;;;;;;10.25;4.00;;;16.00;99.90;;;;;;6270862;22;20026;-84
2023/07/03 00:56:31;;;;;;;12.50;4.00;;;16.00;99.90;;;;;;6271525;22;20090;-84
2023/07/03 00:58:56;;;;;;;13.85;4.20;;;16.10;99.90;;;;;;6270072;22;20588;-84
2023/07/03 01:01:34;;;;;;;12.73;3.95;;;16.00;99.90;;;;;;6269723;22;20105;-84
2023/07/03 01:04:31;;;;;;;15.88;3.65;;;16.00;99.90;;;;;;6266209;22;20093;-84
2023/07/03 01:07:03;;;;;;;13.60;4.43;;;16.00;99.90;;;;;;6269646;22;20019;-84
2023/07/03 01:09:40;;;;;;;13.13;3.65;;;16.00;99.90;;;;;;6269401;22;20047;-84
2023/07/03 01:12:07;;;;;;;13.23;3.83;;;16.00;99.90;;;;;;6268421;22;20098;-84
2023/07/03 01:14:34;;;;;;;14.57;4.35;;;16.00;99.90;;;;;;6267008;22;20007;-84
2023/07/03 01:17:01;;;;;;;13.00;4.25;;;16.00;99.90;;;;;;6271387;22;20330;-84
2023/07/03 01:19:32;;;;;;;12.77;3.90;;;16.00;99.90;;;;;;6269338;22;20008;-84
2023/07/03 01:22:36;;;;;;;13.40;3.45;;;16.00;99.90;;;;;;6269242;22;20008;-84
2023/07/03 01:25:08;;;;;;;13.27;3.90;;;16.00;99.90;;;;;;6267130;22;20015;-84
2023/07/03 01:27:41;;;;;;;16.95;3.97;;;16.00;99.90;;;;;;6269065;22;20016;-84
2023/07/03 01:30:11;;;;;;;14.07;4.18;;;16.00;99.90;;;;;;6268396;22;20061;-84
2023/07/03 01:32:39;;;;;;;10.90;4.22;;;16.00;99.90;;;;;;6271537;22;20020;-84
2023/07/03 01:35:08;;;;;;;19.15;4.15;;;16.00;99.90;;;;;;6270144;22;20016;-84
2023/07/03 01:37:38;;;;;;;9.10;3.20;;;16.00;99.90;;;;;;6270076;22;20046;-84
2023/07/03 01:40:06;;;;;;;11.70;3.50;;;16.00;99.90;;;;;;6268114;22;20012;-84
2023/07/03 01:42:35;;;;;;;9.98;2.80;;;16.00;99.90;;;;;;6243156;22;20019;-83
2023/07/03 01:45:02;;;;;;;10.75;3.58;;;16.00;99.90;;;;;;6243331;22;20541;-84
2023/07/03 01:47:27;;;;;;;10.70;3.40;;;16.10;99.90;;;;;;6270729;22;20015;-84
2023/07/03 01:49:53;;;;;;;11.30;3.25;;;16.00;99.90;;;;;;6270075;22;20090;-84
2023/07/03 01:52:40;;;;;;;11.52;3.40;;;16.00;99.90;;;;;;6268946;22;20022;-85
2023/07/03 01:55:39;;;;;;;13.65;3.55;;;16.00;99.90;;;;;;6270465;22;20012;-84
2023/07/03 01:58:05;;;;;;;17.13;3.60;;;16.00;99.90;;;;;;6262975;22;20081;-84
2023/07/03 02:00:52;;;;;;;15.70;3.70;;;16.10;99.90;;;;;;6244976;22;20082;-84
2023/07/03 02:03:26;;;;;;;12.40;3.97;;;16.10;99.90;;;;;;6271002;22;20019;-84
2023/07/03 02:05:55;;;;;;;12.10;3.45;;;16.00;99.90;;;;;;6270683;22;20047;-84
2023/07/03 02:08:22;;;;;;;13.98;3.20;;;16.00;99.90;;;;;;6270892;22;20018;-84
2023/07/03 02:10:49;;;;;;;10.45;3.47;;;16.00;99.90;;;;;;6270786;22;20008;-84
2023/07/03 02:13:14;;;;;;;12.23;3.42;;;16.10;99.90;;;;;;6270519;22;20016;-84
2023/07/03 02:15:43;;;;;;;15.57;3.83;;;16.00;99.90;;;;;;6271681;22;20083;-84
2023/07/03 02:18:17;;;;;;;10.15;2.90;;;16.10;99.90;;;;;;6270638;22;20047;-84
2023/07/03 02:20:44;;;;;;;11.52;3.22;;;16.10;99.90;;;;;;6246140;22;20365;-84
2023/07/03 02:23:12;;;;;;;11.18;3.17;;;16.00;99.90;;;;;;6272099;22;20023;-83
2023/07/03 02:25:38;;;;;;;11.13;3.45;;;16.00;99.90;;;;;;6270406;22;20019;-83
2023/07/03 02:28:04;;;;;;;8.43;2.58;;;16.10;99.90;;;;;;6272104;22;20299;-83
2023/07/03 02:30:30;;;;;;;8.57;2.97;;;16.10;99.90;;;;;;6272904;22;20011;-83
2023/07/03 02:32:56;;;;;;;8.95;3.10;;;16.00;99.90;;;;;;6245289;22;20365;-83
2023/07/03 02:35:22;;;;;;;11.80;2.88;;;16.10;99.90;;;;;;6270939;22;20454;-83
2023/07/03 02:37:48;;;;;;;10.90;3.10;;;16.10;99.90;;;;;;6270290;22;20011;-83
2023/07/03 02:40:14;;;;;;;13.27;3.08;;;16.10;99.90;;;;;;6270576;22;20015;-84
2023/07/03 02:42:40;;;;;;;8.90;2.50;;;16.00;99.90;;;;;;6271035;22;20423;-83
2023/07/03 02:45:07;;;;;;;9.10;2.90;;;16.00;99.90;;;;;;6270408;22;20016;-83
2023/07/03 02:47:37;;;;;;;17.92;3.50;;;16.00;99.90;;;;;;6269383;22;20011;-83
2023/07/03 02:50:04;;;;;;;13.55;3.05;;;16.00;99.90;;;;;;6268897;22;20012;-83
2023/07/03 02:52:30;;;;;;;11.20;2.80;;;15.90;99.90;;;;;;6271041;22;20450;-83
2023/07/03 02:54:55;;;;;;;13.73;3.40;;;15.90;99.90;;;;;;6244381;22;20008;-83
2023/07/03 02:57:21;;;;;;;12.45;2.70;;;15.90;99.90;;;;;;6269674;22;20014;-83
2023/07/03 02:59:47;;;;;;;8.95;3.00;;;15.90;99.90;;;;;;6270529;22;20073;-83
2023/07/03 03:02:13;;;;;;;10.18;2.78;;;15.90;99.90;;;;;;6243651;22;20426;-83
2023/07/03 03:04:38;;;;;;;6.00;2.92;;;15.80;99.90;;;;;;6272257;22;20067;-83
2023/07/03 03:07:04;;;;;;;12.05;3.25;;;15.80;99.90;;;;;;6244124;22;20438;-83
2023/07/03 03:09:30;;;;;;;11.77;2.80;;;15.80;99.90;;;;;;6271718;22;20069;-83
2023/07/03 03:11:56;;;;;;;10.98;2.78;;;15.70;99.90;;;;;;6270654;22;20382;-83
2023/07/03 03:14:21;;;;;;;11.50;2.90;;;15.70;99.90;;;;;;6271636;22;20065;-83
2023/07/03 03:16:47;;;;;;;10.13;3.00;;;15.70;99.90;;;;;;6272414;22;20090;-83
2023/07/03 03:19:13;;;;;;;10.38;2.85;;;15.60;99.90;;;;;;6270896;22;20094;-83
2023/07/03 03:21:39;;;;;;;10.07;2.90;;;15.60;99.90;;;;;;6271349;22;20064;-83
2023/07/03 03:24:05;;;;;;;11.35;3.22;;;15.60;99.90;;;;;;6270789;22;20299;-83
2023/07/03 03:26:31;;;;;;;11.23;3.58;;;15.50;99.90;;;;;;6272326;22;20085;-83
2023/07/03 03:28:57;;;;;;;17.33;2.95;;;15.50;99.90;;;;;;6245179;22;20015;-83
2023/07/03 03:31:23;;;;;;;10.68;2.58;;;15.40;99.90;;;;;;6244117;22;20441;-83
2023/07/03 03:33:49;;;;;;;9.90;2.70;;;15.40;99.90;;;;;;6271578;22;20030;-83
2023/07/03 03:36:15;;;;;;;15.75;3.22;;;15.30;99.90;;;;;;6271194;22;20016;-83
2023/07/03 03:38:41;;;;;;;7.78;2.53;;;15.30;99.90;;;;;;6269288;22;20028;-83
2023/07/03 03:41:07;;;;;;;9.55;3.30;;;15.30;99.90;;;;;;6269207;22;20361;-83
2023/07/03 03:43:34;;;;;;;8.85;2.83;;;15.30;99.90;;;;;;6243007;22;20434;-83
2023/07/03 03:46:01;;;;;;;11.98;2.45;;;15.20;99.90;;;;;;6269887;22;20019;-83
2023/07/03 03:48:30;;;;;;;11.23;2.22;;;15.20;99.90;;;;;;6269365;22;20011;-83
2023/07/03 03:50:56;;;;;;;7.13;2.13;;;15.20;99.90;;;;;;6269216;22;20450;-83
2023/07/03 03:53:22;;;;;;;8.52;2.30;;;15.20;99.90;;;;;;6269022;22;20020;-83
2023/07/03 03:55:52;;;;;;;8.93;2.20;;;15.20;99.90;;;;;;6270053;22;20023;-83
2023/07/03 03:58:19;;;;;;;10.43;3.10;;;15.20;99.90;;;;;;6270838;22;20011;-83
2023/07/03 04:00:50;;;;;;;7.35;2.47;;;15.10;99.90;;;;;;6271075;22;20447;-83
2023/07/03 04:03:16;;;;;;;8.55;2.53;;;15.10;99.90;;;;;;6244809;22;20014;-83
2023/07/03 04:05:42;;;;;;;9.60;2.30;;;15.10;99.90;;;;;;6272037;22;20453;-83
2023/07/03 04:08:09;;;;;;;9.90;2.30;;;15.00;99.90;;;;;;6270987;22;20312;-83
2023/07/03 04:10:35;;;;;;;6.63;1.63;;;15.10;99.90;;;;;;6244606;22;20439;-83
2023/07/03 04:13:01;;;;;;;9.73;2.47;;;15.10;99.90;;;;;;6244313;22;20022;-83
2023/07/03 04:15:31;;;;;;;12.93;2.58;;;15.00;99.90;;;;;;6270578;22;20016;-83
2023/07/03 04:17:57;;;;;;;11.15;2.15;;;15.00;99.90;;;;;;6269960;22;20007;-83
2023/07/03 04:20:25;;;;;;;9.40;2.50;;;15.00;99.90;;;;;;6271560;22;20007;-83
2023/07/03 04:22:50;;;;;;;8.77;2.65;;;15.00;99.90;;;;;;6267433;22;20090;-83
2023/07/03 04:25:19;;;;;;;8.98;1.75;;;15.00;99.90;;;;;;6269062;22;20093;-83
2023/07/03 04:27:45;;;;;;;10.30;2.22;;;15.00;99.90;;;;;;6243779;22;20032;-83
2023/07/03 04:30:11;;;;;;;8.38;2.03;;;15.00;99.90;;;;;;6269064;22;20016;-84
2023/07/03 04:32:37;;;;;;;9.32;2.80;;;14.90;99.90;;;;;;6242579;22;20098;-83
2023/07/03 04:35:04;;;;;;;12.55;2.47;;;14.90;99.90;;;;;;6270918;22;20015;-84
2023/07/03 04:37:30;;;;;;;12.55;2.05;;;14.90;99.90;;;;;;6268473;22;20430;-83
2023/07/03 04:39:56;;;;;;;8.48;1.75;;;14.90;99.90;;;;;;6268315;22;20015;-83
2023/07/03 04:42:22;;;;;;;6.25;1.83;;;14.90;99.90;;;;;;6269389;22;20494;-83
2023/07/03 04:44:52;;;;;;;8.48;1.83;;;14.90;99.90;;;;;;6269034;22;20004;-84
2023/07/03 04:47:18;;;;;;;7.30;1.70;;;15.00;99.90;;;;;;6269396;22;20047;-83
2023/07/03 04:49:45;;;;;;;10.40;2.40;;;14.90;99.90;;;;;;6269435;22;20015;-83
2023/07/03 04:52:16;;;;;;;8.35;1.80;;;14.90;99.90;;;;;;6268009;22;20023;-83
2023/07/03 04:54:43;;;;;;;5.97;1.90;;;14.90;99.90;;;;;;6272118;22;20011;-83
2023/07/03 04:57:09;;;;;;;11.13;2.03;;;14.90;99.90;;;;;;6270521;22;20016;-84
2023/07/03 04:59:36;;;;;;;6.80;1.55;;;14.90;99.90;;;;;;6270575;22;20089;-84
2023/07/03 05:02:02;;;;;;;8.32;1.90;;;15.00;99.90;;;;;;6270341;22;20086;-83
2023/07/03 05:04:28;;;;;;;9.98;2.20;;;15.00;99.90;;;;;;6271470;22;20016;-84
2023/07/03 05:06:53;;;;;;;7.45;1.73;;;14.90;99.90;;;;;;6268399;22;20020;-84
2023/07/03 05:09:19;;;;;;;9.77;1.60;;;14.90;99.90;;;;;;6268658;22;20016;-83
2023/07/03 05:11:48;;;;;;;11.52;2.75;;;14.90;99.90;;;;;;6270316;22;20450;-83
2023/07/03 05:14:26;;;;;;;13.13;1.92;;;15.00;99.90;;;;;;6271394;22;20079;-83
2023/07/03 05:16:52;;;;;;;11.57;2.45;;;15.00;99.90;;;;;;6243428;22;20489;-83
2023/07/03 05:19:18;;;;;;;8.60;2.00;;;15.00;99.90;;;;;;6271511;22;20011;-84
2023/07/03 05:21:43;;;;;;;13.23;2.42;;;15.00;99.90;;;;;;6243612;22;20012;-84
2023/07/03 05:24:09;;;;;;;9.20;1.88;;;15.10;99.90;;;;;;6271467;22;20012;-84
2023/07/03 05:26:35;;;;;;;6.53;1.40;;;15.10;99.90;;;;;;6244434;22;20023;-84
2023/07/03 05:29:01;;;;;;;7.70;2.00;;;15.20;99.90;;;;;;6270444;22;20015;-84
2023/07/03 05:31:26;;;;;;;7.85;2.13;;;15.20;99.90;;;;;;6270039;22;20022;-84
2023/07/03 05:33:52;;;;;;;9.32;2.08;;;15.30;99.90;;;;;;6272992;22;20012;-84
2023/07/03 05:36:18;;;;;;;10.23;2.33;;;15.30;99.90;;;;;;6271111;22;20047;-84
2023/07/03 05:38:44;;;;;;;11.43;2.10;;;15.40;99.90;;;;;;6271341;22;20023;-84
2023/07/03 05:41:10;;;;;;;11.13;1.80;;;15.40;99.90;;;;;;6272701;22;20004;-84
2023/07/03 05:43:36;;;;;;;8.23;1.52;;;15.40;99.90;;;;;;6273353;22;20015;-84
2023/07/03 05:46:01;;;;;;;13.70;2.53;;;15.50;99.90;;;;;;6270912;22;20026;-84
2023/07/03 05:48:27;;;;;;;10.52;1.70;;;15.60;99.90;;;;;;6270989;22;20007;-84
2023/07/03 05:50:53;;;;;;;11.00;1.80;;;15.60;99.90;;;;;;6245094;22;20047;-84
2023/07/03 05:53:19;;;;;;;10.52;2.03;;;15.70;99.90;;;;;;6270320;22;20094;-85
2023/07/03 05:55:58;;;;;;;10.57;1.65;;;15.70;99.90;;;;;;6272734;22;20015;-89
2023/07/03 05:58:26;;;;;;;8.32;1.90;;;15.80;99.90;;;;;;6271741;22;20008;-89
2023/07/03 06:00:52;;;;;;;10.30;2.38;;;15.70;99.90;;;;;;6269458;22;20065;-83
2023/07/03 06:03:18;;;;;;;10.00;1.75;;;15.80;99.90;;;;;;6269708;22;20050;-82
2023/07/03 06:05:45;;;;;;;8.93;1.88;;;15.90;99.90;;;;;;6271351;22;20015;-84
2023/07/03 06:08:11;;;;;;;9.52;2.00;;;15.90;99.90;;;;;;6269616;22;20034;-82
2023/07/03 06:10:38;;;;;;;6.97;1.27;;;15.90;99.90;;;;;;6270995;22;20020;-83
2023/07/03 06:13:04;;;;;;;10.05;1.52;;;15.90;99.90;;;;;;6244200;22;20050;-86
2023/07/03 06:15:30;;;;;;;12.27;2.00;;;15.90;99.90;;;;;;6271719;22;20065;-85
2023/07/03 06:17:56;;;;;;;10.75;2.10;;;15.90;99.90;;;;;;6268879;22;20112;-84
2023/07/03 06:20:22;;;;;;;13.43;2.63;;;15.90;99.90;;;;;;6245718;22;20385;-84
2023/07/03 06:22:48;;;;;;;6.80;1.38;;;15.90;99.90;;;;;;6272179;22;20011;-88
2023/07/03 06:25:14;;;;;;;11.35;2.05;;;16.00;99.90;;;;;;6272851;22;20019;-87
2023/07/03 06:27:39;;;;;;;12.50;1.75;;;16.00;99.90;;;;;;6247217;22;20008;-86
2023/07/03 06:30:06;;;;;;;8.85;2.08;;;16.10;99.90;;;;;;6272068;22;20078;-87
2023/07/03 06:32:32;;;;;;;9.68;1.75;;;16.30;99.90;;;;;;6271638;22;20008;-84
2023/07/03 06:34:57;;;;;;;7.93;1.67;;;16.40;99.90;;;;;;6244445;22;20435;-84
2023/07/03 06:37:23;;;;;;;7.07;1.38;;;16.50;99.90;;;;;;6271137;22;20008;-85
2023/07/03 06:39:49;;;;;;;8.70;2.10;;;16.60;99.90;;;;;;6271272;22;20019;-84
2023/07/03 06:42:17;;;;;;;11.02;1.92;;;16.60;99.90;;;;;;6271542;22;20011;-83
2023/07/03 06:44:43;;;;;;;11.25;2.10;;;16.60;99.90;;;;;;6245970;22;20095;-82
2023/07/03 06:47:09;;;;;;;9.48;2.45;;;16.50;99.90;;;;;;6246012;22;20027;-82
2023/07/03 06:49:36;;;;;;;10.20;2.15;;;16.30;99.90;;;;;;6272514;22;20509;-82
2023/07/03 06:52:02;;;;;;;9.95;2.03;;;16.20;99.90;;;;;;6273938;22;20015;-82
2023/07/03 06:54:27;;;;;;;9.13;1.90;;;16.00;99.90;;;;;;6272937;22;20015;-83
2023/07/03 06:56:53;;;;;;;13.55;2.75;;;16.00;99.90;;;;;;6272054;22;20070;-82
2023/07/03 06:59:19;;;;;;;9.50;2.15;;;15.90;99.90;;;;;;6271244;22;20051;-82
2023/07/03 07:01:44;;;;;;;13.13;2.40;;;15.90;99.90;;;;;;6270096;22;20046;-82
2023/07/03 07:04:11;;;;;;;10.55;2.40;;;15.90;99.90;;;;;;6270343;22;20361;-82
2023/07/03 07:06:38;;;;;;;16.05;2.40;;;15.90;99.90;;;;;;6272362;22;20105;-82
2023/07/03 07:09:04;;;;;;;11.52;2.20;;;15.90;99.90;;;;;;6270208;22;20016;-82
2023/07/03 07:11:33;;;;;;;11.00;2.47;;;15.90;99.90;;;;;;6272419;22;20018;-83
2023/07/03 07:14:01;;;;;;;8.60;2.22;;;16.00;99.90;;;;;;6269852;22;20015;-82
2023/07/03 07:16:36;;;;;;;12.98;2.38;;;16.00;99.90;;;;;;6271668;22;20484;-82
2023/07/03 07:19:05;;;;;;;11.95;2.33;;;16.20;99.90;;;;;;6244872;22;20140;-82
2023/07/03 07:21:32;;;;;;;10.02;2.22;;;16.40;99.90;;;;;;6270717;22;20473;-83
2023/07/03 07:24:01;;;;;;;8.73;2.40;;;16.80;99.90;;;;;;6270759;22;20083;-84
2023/07/03 07:26:33;;;;;;;11.93;2.90;;;17.10;99.90;;;;;;6270529;22;20016;-83
2023/07/03 07:29:03;;;;;;;12.50;2.30;;;17.40;99.90;;;;;;6244687;22;20688;-83
2023/07/03 07:31:31;;;;;;;11.43;1.90;;;17.70;99.90;;;;;;6269552;22;20018;-84
2023/07/03 07:33:57;;;;;;;9.85;2.20;;;18.00;99.90;;;;;;6272128;22;20047;-92
2023/07/03 07:36:24;;;;;;;7.60;1.80;;;18.40;99.90;;;;;;6272434;22;20015;-91
2023/07/03 07:38:51;;;;;;;7.90;1.33;;;18.50;99.90;;;;;;6270698;22;20071;-82
2023/07/03 07:41:17;;;;;;;9.88;1.80;;;18.40;99.90;;;;;;6244463;22;20573;-81
2023/07/03 07:43:43;;;;;;;6.80;1.90;;;18.10;99.90;;;;;;6270528;22;20012;-82
2023/07/03 07:46:09;;;;;;;7.95;1.75;;;17.80;99.90;;;;;;6270638;22;20043;-85
2023/07/03 07:48:35;;;;;;;7.97;1.90;;;17.70;99.90;;;;;;6245722;22;20016;-82
2023/07/03 07:51:06;;;;;;;9.75;1.73;;;17.40;99.90;;;;;;6270648;22;20015;-82
2023/07/03 07:53:31;;;;;;;10.00;1.88;;;17.20;99.90;;;;;;6272782;22;20012;-83
2023/07/03 07:55:58;;;;;;;9.02;2.22;;;17.00;99.90;;;;;;6269638;22;20339;-83
2023/07/03 07:58:24;;;;;;;11.30;2.17;;;16.90;99.90;;;;;;6270990;22;20456;-83
2023/07/03 08:00:52;;;;;;;8.00;1.55;;;16.90;99.90;;;;;;6244592;22;20083;-83
2023/07/03 08:03:18;;;;;;;11.48;2.25;;;16.80;99.90;;;;;;6272182;22;20078;-83
2023/07/03 08:05:44;;;;;;;6.28;1.42;;;16.80;99.90;;;;;;6243624;22;20055;-83
2023/07/03 08:08:09;;;;;;;7.88;1.85;;;16.80;99.90;;;;;;6270257;22;20500;-83
2023/07/03 08:10:35;;;;;;;7.97;1.38;;;16.80;99.90;;;;;;6270187;22;20015;-83
2023/07/03 08:13:01;;;;;;;9.95;1.50;;;16.80;99.90;;;;;;6269368;22;20061;-83
2023/07/03 08:15:27;;;;;;;8.80;1.95;;;16.80;99.90;;;;;;6243688;22;20458;-83
2023/07/03 08:17:53;;;;;;;11.38;2.00;;;16.80;99.90;;;;;;6242484;22;20011;-85
2023/07/03 08:20:18;;;;;;;9.30;1.80;;;16.80;99.90;;;;;;6270798;22;20022;-80
2023/07/03 08:22:44;;;;;;;8.52;1.55;;;16.90;99.90;;;;;;6271678;22;20008;-81
2023/07/03 08:25:10;;;;;;;7.25;1.30;;;16.90;99.90;;;;;;6271452;22;20008;-84
2023/07/03 08:27:36;;;;;;;8.48;2.95;;;16.90;99.90;;;;;;6271079;22;20018;-87
2023/07/03 08:30:04;;;;;;;6.47;1.27;;;17.00;99.90;;;;;;6269467;22;20051;-82
2023/07/03 08:32:29;;;;;;;8.15;1.10;;;17.30;99.90;;;;;;6271218;22;20016;-84
2023/07/03 08:34:55;;;;;;;10.07;1.60;;;17.60;99.90;;;;;;6244887;22;20015;-89
2023/07/03 08:37:21;;;;;;;7.88;1.23;;;17.80;99.90;;;;;;6272525;22;20015;-86
2023/07/03 08:39:46;;;;;;;5.82;1.60;;;17.90;99.90;;;;;;6272108;22;20015;-87
2023/07/03 08:42:15;;;;;;;8.25;1.80;;;17.90;99.90;;;;;;6269963;22;20302;-87
2023/07/03 08:44:41;;;;;;;6.57;1.05;;;18.00;99.90;;;;;;6269425;22;20180;-87
2023/07/03 08:47:12;;;;;;;6.40;1.42;;;18.10;99.90;;;;;;6269751;22;20083;-87
2023/07/03 08:49:40;;;;;;;7.30;1.05;;;18.20;99.90;;;;;;6270765;22;20015;-87
2023/07/03 08:52:07;;;;;;;8.05;1.33;;;18.20;99.90;;;;;;6244676;22;20020;-87
2023/07/03 08:54:56;;;;;;;8.80;1.48;;;18.20;99.90;;;;;;6270496;22;20012;-87
2023/07/03 08:57:23;;;;;;;5.47;1.08;;;18.20;99.90;;;;;;6270710;22;20454;-87
2023/07/03 08:59:48;;;;;;;7.03;1.20;;;18.10;99.90;;;;;;6270287;22;20012;-87
2023/07/03 09:02:36;;;;;;;6.80;1.33;;;18.10;99.90;;;;;;6269259;22;20016;-87
2023/07/03 09:05:29;;;;;;;7.45;1.55;;;18.30;99.90;;;;;;6271698;22;20108;-86
2023/07/03 09:08:05;;;;;;;11.23;1.40;;;18.40;99.90;;;;;;6269303;22;20011;-87
2023/07/03 09:10:42;;;;;;;8.63;1.35;;;18.50;99.90;;;;;;6269408;22;20016;-87
2023/07/03 09:13:32;;;;;;;10.45;1.27;;;18.50;99.90;;;;;;6268708;22;20438;-86
2023/07/03 09:16:18;;;;;;;7.43;1.48;;;18.50;99.90;;;;;;6271511;22;20016;-87
2023/07/03 09:19:15;;;;;;;7.63;1.40;;;18.40;99.90;;;;;;6270121;22;20047;-87
2023/07/03 09:22:05;;;;;;;4.57;1.10;;;18.30;99.90;;;;;;6244933;22;20012;-87
2023/07/03 09:24:39;;;;;;;12.95;1.58;;;18.20;99.90;;;;;;6270364;22;20021;-87
2023/07/03 09:27:19;;;;;;;7.68;1.50;;;18.30;99.90;;;;;;6268878;22;20016;-87
2023/07/03 09:29:46;;;;;;;5.30;1.10;;;18.30;99.90;;;;;;6271607;22;20446;-87
2023/07/03 09:32:21;;;;;;;9.00;1.25;;;18.30;99.90;;;;;;6269429;22;20099;-88
2023/07/03 09:35:15;;;;;;;5.25;1.08;;;18.30;99.90;;;;;;6270351;22;20023;-87
2023/07/03 09:37:51;;;;;;;4.63;1.00;;;18.30;99.90;;;;;;6270639;22;20030;-88
2023/07/03 09:40:26;;;;;;;14.00;1.45;;;18.40;99.90;;;;;;6270353;22;20016;-87
2023/07/03 09:42:53;;;;;;;5.75;1.08;;;18.50;99.90;;;;;;6272510;22;20569;-87
2023/07/03 09:45:31;;;;;;;6.07;1.13;;;18.60;99.90;;;;;;6244927;22;20122;-89
2023/07/03 09:47:59;;;;;;;4.47;0.73;;;18.70;99.90;;;;;;6272877;22;20008;-92
2023/07/03 09:50:32;;;;;;;4.72;0.70;;;18.60;99.90;;;;;;6272037;22;20072;-89
2023/07/03 09:53:00;;;;;;;4.03;1.08;;;18.50;99.90;;;;;;6270264;22;20008;-89
2023/07/03 09:55:26;;;;;;;4.20;0.80;;;18.40;99.90;;;;;;6244872;22;20023;-89
2023/07/03 09:57:53;;;;;;;4.82;0.75;;;18.30;99.90;;;;;;6272558;22;20028;-88
2023/07/03 10:00:21;;;;;;;5.05;0.80;;;18.20;99.90;;;;;;6245856;22;20059;-89
2023/07/03 10:02:55;;;;;;;4.35;1.08;;;18.20;99.90;;;;;;6245477;22;20012;-89
2023/07/03 10:05:29;;;;;;;3.92;0.80;;;18.20;99.90;;;;;;6245721;22;20213;-88
2023/07/03 10:08:00;;;;;;;6.05;1.10;;;18.20;99.90;;;;;;6270912;22;20012;-88
2023/07/03 10:10:28;;;;;;;5.25;1.00;;;18.30;99.90;;;;;;6272377;22;20082;-86
2023/07/03 10:13:06;;;;;;;6.57;1.13;;;18.40;99.90;;;;;;6270474;22;20516;-88
2023/07/03 10:15:37;;;;;;;6.32;1.25;;;18.50;99.90;;;;;;6270418;22;20019;-90
2023/07/03 10:18:12;;;;;;;7.07;1.17;;;18.50;99.90;;;;;;6244747;22;20445;-89
2023/07/03 10:20:44;;;;;;;6.57;1.08;;;18.50;99.90;;;;;;6274651;22;20012;-90
2023/07/03 10:23:16;;;;;;;7.22;1.10;;;18.50;99.90;;;;;;6273448;22;20453;-90
2023/07/03 10:25:48;;;;;;;3.85;0.85;;;18.30;99.90;;;;;;6246953;22;20020;-89
2023/07/03 10:28:27;;;;;;;2.72;0.90;;;18.10;99.90;;;;;;6246755;22;20011;-89
2023/07/03 10:30:58;;;;;;;4.03;0.85;;;17.90;99.90;;;;;;6273576;22;20063;-89
2023/07/03 10:33:30;;;;;;;2.63;0.80;;;17.80;99.90;;;;;;6246609;22;20042;-89
2023/07/03 10:35:57;;;;;;;4.72;0.80;;;17.70;99.90;;;;;;6272935;22;20546;-91
2023/07/03 10:38:30;;;;;;;5.05;0.73;;;17.70;99.90;;;;;;6271303;22;20145;-92
2023/07/03 10:41:21;;;;;;;3.22;0.90;;;17.70;99.90;;;;;;6271384;22;20095;-90
2023/07/03 10:43:56;;;;;;;5.60;1.00;;;17.90;99.90;;;;;;6273017;22;20303;-92
2023/07/03 10:46:46;;;;;;;5.55;0.82;;;18.10;99.90;;;;;;6273215;22;20434;-91
2023/07/03 10:49:19;;;;;;;6.45;1.30;;;18.20;99.90;;;;;;6245602;22;20137;-90
2023/07/03 10:51:57;;;;;;;6.35;0.93;;;18.40;99.90;;;;;;6273480;22;20011;-92
2023/07/03 10:54:33;;;;;;;4.15;1.13;;;18.50;99.90;;;;;;6245516;22;20123;-92
2023/07/03 10:57:03;;;;;;;4.13;0.90;;;18.50;99.90;;;;;;6271031;22;20012;-92
2023/07/03 10:59:34;;;;;;;5.47;0.88;;;18.70;99.90;;;;;;6271292;22;20018;-91
2023/07/03 11:02:22;;;;;;;4.28;1.02;;;18.90;99.90;;;;;;6270936;22;20514;-93
2023/07/03 11:05:15;;;;;;;3.80;1.05;;;19.10;99.90;;;;;;6273056;22;20506;-92
2023/07/03 11:07:56;;;;;;;4.90;0.90;;;19.20;99.90;;;;;;6270606;22;20069;-93
2023/07/03 11:10:38;;;;;;;4.10;0.98;;;19.30;99.90;;;;;;6271921;22;20028;-93
2023/07/03 11:13:31;;;;;;;8.30;1.08;;;19.50;99.90;;;;;;6272737;22;20007;-92
2023/07/03 11:16:14;;;;;;;4.85;0.80;;;19.60;99.90;;;;;;6271653;22;20023;-93
2023/07/03 11:18:48;;;;;;;4.63;1.35;;;19.60;99.90;;;;;;6272556;22;20012;-92
2023/07/03 11:21:34;;;;;;;5.78;0.90;;;19.70;99.90;;;;;;6245631;22;20012;-92
2023/07/03 11:24:17;;;;;;;5.90;0.77;;;19.80;99.90;;;;;;6270549;22;20501;-93
2023/07/03 11:26:53;;;;;;;4.20;0.88;;;19.80;99.90;;;;;;6271379;22;20026;-92
2023/07/03 11:29:19;;;;;;;5.45;0.80;;;19.70;99.30;;;;;;6271661;22;20087;-93
2023/07/03 11:31:46;;;;;;;3.88;0.70;;;19.70;99.10;;;;;;6271308;22;20034;-92
2023/07/03 11:34:15;;;;;;;3.85;0.80;;;19.70;99.60;;;;;;6272693;22;20019;-92
2023/07/03 11:36:48;;;;;;;4.03;0.65;;;19.60;99.60;;;;;;6270404;22;20628;-92
2023/07/03 11:39:23;;;;;;;3.40;0.60;;;19.50;99.40;;;;;;6272817;22;20015;-92
2023/07/03 11:41:53;;;;;;;5.55;0.95;;;19.40;99.30;;;;;;6273011;22;20057;-93
2023/07/03 11:45:00;;;;;;;4.55;0.60;;;19.30;99.10;;;;;;6271204;22;20012;-93
2023/07/03 11:47:30;;;;;;;4.55;1.00;;;19.30;99.40;;;;;;6241398;22;20453;-93
2023/07/03 11:50:04;;;;;;;7.00;0.82;;;19.30;99.60;;;;;;6273663;22;20039;-94
2023/07/03 11:52:36;;;;;;;4.03;0.75;;;19.40;99.50;;;;;;6272101;22;20011;-95
2023/07/03 11:55:07;;;;;;;5.75;0.80;;;19.50;98.70;;;;;;6273712;22;20008;-92
2023/07/03 11:57:36;;;;;;;3.28;0.75;;;19.60;98.60;;;;;;6271879;22;20020;-94
2023/07/03 12:00:29;;;;;;;4.03;0.75;;;19.50;98.20;;;;;;6272713;22;20008;-92
2023/07/03 12:03:06;;;;;;;4.13;0.75;;;19.60;99.20;;;;;;6271809;22;20027;-93
2023/07/03 12:05:43;;;;;;;4.93;0.68;;;19.70;98.00;;;;;;6270121;22;20519;-92
2023/07/03 12:08:39;;;;;;;5.50;0.80;;;19.80;98.40;;;;;;6273230;22;20053;-88
2023/07/03 12:11:06;;;;;;;7.50;0.85;;;19.70;98.20;;;;;;6273380;22;20062;-95
2023/07/03 12:13:41;;;;;;;7.35;0.90;;;19.60;99.10;;;;;;6272853;22;20411;-91
2023/07/03 12:16:29;;;;;;;6.75;0.90;;;19.50;99.20;;;;;;6271768;22;20023;-92
2023/07/03 12:19:00;;;;;;;9.82;1.10;;;19.30;98.90;;;;;;6270092;22;20012;-89
2023/07/03 12:21:37;;;;;;;5.10;0.65;;;19.20;99.20;;;;;;6243794;22;20508;-85
2023/07/03 12:24:23;;;;;;;3.45;1.00;;;19.10;99.20;;;;;;6271596;22;20004;-85
2023/07/03 12:26:52;;;;;;;2.55;0.82;;;19.10;98.10;;;;;;6272325;22;20022;-85
2023/07/03 12:29:19;;;;;;;5.65;0.77;;;19.00;98.00;;;;;;6272267;22;20034;-84
2023/07/03 12:31:57;;;;;;;2.75;0.80;;;18.90;97.30;;;;;;6269492;22;20507;-85
2023/07/03 12:34:25;;;;;;;5.35;0.90;;;18.90;98.30;;;;;;6271147;22;20034;-85
2023/07/03 12:36:51;;;;;;;8.45;1.00;;;18.90;98.60;;;;;;6270165;22;20016;-86
2023/07/03 12:39:17;;;;;;;5.18;0.63;;;18.80;98.30;;;;;;6271014;22;20043;-86
2023/07/03 12:41:43;;;;;;;4.57;0.95;;;18.90;98.90;;;;;;6269758;22;20008;-85
2023/07/03 12:44:13;;;;;;;5.30;0.68;;;18.90;99.10;;;;;;6269163;22;20069;-85
2023/07/03 12:46:40;;;;;;;4.78;0.80;;;18.90;98.80;;;;;;6244165;22;20062;-85
2023/07/03 12:49:15;;;;;;;7.60;0.80;;;18.80;98.80;;;;;;6269108;22;20051;-85
2023/07/03 12:51:41;;;;;;;;;;;18.70;98.10;;;;;;6272362;22;20513;-85
2023/07/03 12:54:12;;;;;;;5.30;0.90;;;18.60;99.00;;;;;;6295321;22;19982;-86
2023/07/03 12:56:39;;;;;;;3.63;0.75;;;18.60;98.90;;;;;;6243860;22;20384;-84